aviador You're here:

VELR Decoded Metar

LILABARI in INDIA
Report Time2017-12-18 03:00:00
UTC Time2017-12-18 03:22:10
Flight Rules ifr IFR
Wind020° at 03 kt
W.Decomp.*RWY 04: 2.8 kt HW 1 kt LCW
W.Rank020° ranks 6
Current wind is below 020° avg. (4.8)
Visibility3500 m
Phenomena:Mist
Clouds:Few 020 Hf
Expected CloudBase > 1,200 ft AGL from Temp-Dew spread
CeilingNone
Temp17°C (ISA +3)
Dew Point14°C (83% RH)
QNH1021 hPa
Density Alt587 ft
Elevation331 ft
Report Wrong Elevation
Raw Report
METAR VELR 180300Z 02003KT 3500 BR FEW020 17/14 Q1021 =####018000089####
SAIN90 VEGT 180300

Extra information for VELR:More info

Airport Information Weather charts Add Link Nearby Venues Social comments